createdAt,value
2023-04-09T00:01:09.885Z,16.43
2023-04-09T00:03:39.102Z,15.97
2023-04-09T00:06:07.686Z,14.63
2023-04-09T00:08:36.059Z,17.10
2023-04-09T00:11:04.413Z,16.50
2023-04-09T00:13:39.361Z,16.53
2023-04-09T00:16:09.945Z,17.30
2023-04-09T00:18:38.146Z,16.73
2023-04-09T00:21:08.494Z,16.80
2023-04-09T00:23:36.587Z,16.53
2023-04-09T00:26:05.029Z,16.13
2023-04-09T00:28:33.256Z,17.00
2023-04-09T00:31:01.435Z,16.67
2023-04-09T00:33:31.421Z,17.10
2023-04-09T00:35:59.524Z,17.03
2023-04-09T00:38:27.593Z,17.47
2023-04-09T00:40:55.776Z,17.20
2023-04-09T00:43:23.815Z,17.67
2023-04-09T00:45:52.026Z,17.23
2023-04-09T00:48:20.236Z,19.10
2023-04-09T00:50:49.663Z,16.33
2023-04-09T00:53:18.243Z,17.80
2023-04-09T00:55:46.854Z,17.90
2023-04-09T00:58:15.327Z,18.30
2023-04-09T01:00:43.573Z,17.67
2023-04-09T01:03:11.952Z,17.57
2023-04-09T01:05:48.182Z,16.83
2023-04-09T01:08:33.076Z,16.87
2023-04-09T01:11:09.811Z,18.03
2023-04-09T01:13:44.085Z,16.67
2023-04-09T01:16:15.801Z,17.33
2023-04-09T01:18:50.489Z,16.17
2023-04-09T01:21:21.410Z,17.60
2023-04-09T01:24:00.786Z,19.27
2023-04-09T01:26:42.412Z,19.33
2023-04-09T01:29:12.367Z,18.43
2023-04-09T01:31:43.734Z,18.00
2023-04-09T01:34:12.678Z,18.07
2023-04-09T01:36:42.986Z,18.30
2023-04-09T01:39:11.217Z,17.40
2023-04-09T01:41:41.052Z,17.23
2023-04-09T01:44:10.628Z,18.30
2023-04-09T01:46:41.394Z,16.90
2023-04-09T01:49:11.118Z,19.00
2023-04-09T01:51:39.458Z,18.30
2023-04-09T01:54:07.608Z,18.07
2023-04-09T01:56:42.850Z,18.50
2023-04-09T01:59:11.343Z,18.53
2023-04-09T02:01:46.490Z,17.93
2023-04-09T02:04:21.049Z,17.93
2023-04-09T02:06:58.565Z,19.03
2023-04-09T02:09:30.650Z,17.93
2023-04-09T02:12:02.465Z,17.40
2023-04-09T02:14:32.613Z,17.80
2023-04-09T02:17:03.108Z,18.13
2023-04-09T02:19:40.722Z,16.83
2023-04-09T02:22:08.806Z,18.63
2023-04-09T02:24:37.390Z,16.80
2023-04-09T02:27:06.177Z,17.73
2023-04-09T02:29:34.558Z,17.90
2023-04-09T02:32:03.993Z,19.00
2023-04-09T02:34:32.224Z,18.20
2023-04-09T02:37:00.423Z,16.93
2023-04-09T02:39:28.511Z,17.10
2023-04-09T02:41:57.928Z,17.80
2023-04-09T02:44:26.132Z,17.10
2023-04-09T02:46:54.186Z,17.70
2023-04-09T02:49:23.567Z,17.20
2023-04-09T02:51:51.645Z,17.00
2023-04-09T02:54:19.667Z,19.00
2023-04-09T02:56:47.668Z,18.30
2023-04-09T02:59:16.333Z,17.23
2023-04-09T03:01:44.569Z,18.57
2023-04-09T03:04:12.882Z,17.60
2023-04-09T03:06:42.309Z,17.70
2023-04-09T03:09:10.477Z,19.80
2023-04-09T03:11:38.505Z,18.93
2023-04-09T03:14:06.551Z,17.80
2023-04-09T03:16:34.607Z,19.07
2023-04-09T03:19:02.947Z,18.43
2023-04-09T03:21:32.015Z,16.30
2023-04-09T03:24:02.266Z,17.30
2023-04-09T03:26:36.090Z,18.40
2023-04-09T03:29:04.341Z,19.30
2023-04-09T03:31:32.664Z,18.17
2023-04-09T03:34:00.794Z,18.50
2023-04-09T03:36:28.992Z,17.50
2023-04-09T03:38:57.074Z,17.53
2023-04-09T03:41:27.443Z,17.80
2023-04-09T03:43:55.506Z,19.30
2023-04-09T03:46:23.610Z,18.23
2023-04-09T03:48:52.019Z,17.57
2023-04-09T03:51:20.415Z,18.70
2023-04-09T03:53:48.416Z,17.90
2023-04-09T03:56:16.544Z,18.43
2023-04-09T03:58:46.116Z,18.30
2023-04-09T04:01:14.240Z,18.73
2023-04-09T04:03:42.619Z,18.87
2023-04-09T04:06:10.742Z,18.27
2023-04-09T04:08:38.899Z,19.23
2023-04-09T04:11:07.033Z,17.47
2023-04-09T04:13:35.119Z,19.13
2023-04-09T04:16:08.684Z,19.63
2023-04-09T04:18:36.869Z,19.40
2023-04-09T04:21:05.312Z,18.80
2023-04-09T04:23:34.890Z,19.53
2023-04-09T04:26:03.452Z,18.80
2023-04-09T04:28:31.565Z,19.47
2023-04-09T04:30:59.715Z,17.77
2023-04-09T04:33:29.095Z,19.23
2023-04-09T04:36:06.502Z,17.93
2023-04-09T04:38:34.761Z,18.67
2023-04-09T04:41:02.965Z,18.00
2023-04-09T04:43:31.078Z,18.40
2023-04-09T04:45:59.371Z,18.27
2023-04-09T04:48:30.944Z,18.50
2023-04-09T04:51:00.591Z,18.47
2023-04-09T04:53:29.213Z,19.00
2023-04-09T04:55:57.226Z,19.80
2023-04-09T04:58:26.191Z,19.63
2023-04-09T05:00:54.230Z,19.47
2023-04-09T05:03:23.122Z,18.27
2023-04-09T05:05:53.046Z,18.10
2023-04-09T05:08:21.374Z,17.77
2023-04-09T05:10:49.549Z,17.90
2023-04-09T05:13:17.779Z,17.90
2023-04-09T05:15:45.871Z,19.00
2023-04-09T05:18:14.067Z,19.60
2023-04-09T05:20:42.134Z,20.90
2023-04-09T05:23:12.647Z,20.07
2023-04-09T05:25:40.906Z,19.90
2023-04-09T05:28:11.174Z,19.70
2023-04-09T05:30:39.397Z,20.07
2023-04-09T05:33:07.466Z,19.20
2023-04-09T05:35:39.285Z,19.83
2023-04-09T05:38:07.597Z,20.67
2023-04-09T05:40:37.154Z,19.30
2023-04-09T05:43:05.609Z,19.27
2023-04-09T05:45:33.609Z,19.33
2023-04-09T05:48:01.899Z,21.43
2023-04-09T05:50:29.974Z,20.77
2023-04-09T05:52:58.017Z,21.60
2023-04-09T05:55:26.233Z,22.20
2023-04-09T05:57:55.960Z,22.43
2023-04-09T06:00:24.252Z,22.13
2023-04-09T06:02:52.540Z,20.90
2023-04-09T06:05:20.660Z,20.63
2023-04-09T06:07:48.800Z,21.63
2023-04-09T06:10:16.881Z,20.47
2023-04-09T06:12:45.254Z,21.20
2023-04-09T06:15:14.699Z,21.67
2023-04-09T06:17:42.834Z,22.47
2023-04-09T06:20:11.722Z,23.40
2023-04-09T06:22:39.829Z,22.67
2023-04-09T06:25:08.641Z,22.13
2023-04-09T06:27:36.740Z,22.37
2023-04-09T06:30:05.329Z,22.40
2023-04-09T06:32:46.968Z,21.93
2023-04-09T06:35:19.445Z,22.20
2023-04-09T06:37:47.571Z,21.23
2023-04-09T06:40:16.198Z,22.50
2023-04-09T06:42:44.285Z,21.30
2023-04-09T06:45:12.834Z,21.40
2023-04-09T06:47:42.514Z,19.83
2023-04-09T06:50:11.100Z,21.80
2023-04-09T06:52:39.185Z,21.77
2023-04-09T06:55:07.932Z,21.73
2023-04-09T06:57:36.011Z,20.03
2023-04-09T07:00:04.603Z,20.27
2023-04-09T07:02:33.141Z,20.27
2023-04-09T07:05:03.136Z,20.83
2023-04-09T07:07:31.714Z,20.17
2023-04-09T07:09:59.842Z,18.67
2023-04-09T07:12:29.013Z,21.40
2023-04-09T07:14:59.278Z,18.77
2023-04-09T07:17:27.442Z,18.63
2023-04-09T07:19:55.605Z,17.77
2023-04-09T07:22:27.777Z,18.47
2023-04-09T07:24:56.510Z,18.37
2023-04-09T07:27:26.570Z,18.63
2023-04-09T07:29:56.779Z,18.10
2023-04-09T07:32:25.501Z,18.23
2023-04-09T07:34:54.445Z,17.03
2023-04-09T07:37:24.138Z,17.93
2023-04-09T07:39:52.516Z,15.73
2023-04-09T07:42:20.800Z,14.87
2023-04-09T07:44:48.883Z,15.03
2023-04-09T07:47:17.231Z,13.80
2023-04-09T07:49:45.484Z,13.87
2023-04-09T07:52:13.803Z,14.77
2023-04-09T07:54:43.490Z,13.27
2023-04-09T07:57:11.728Z,13.77
2023-04-09T07:59:39.891Z,14.13
2023-04-09T08:02:08.937Z,13.53
2023-04-09T08:04:37.575Z,11.67
2023-04-09T08:07:05.886Z,11.30
2023-04-09T08:09:35.488Z,10.60
2023-04-09T08:12:05.434Z,10.40
2023-04-09T08:14:33.786Z,9.30
2023-04-09T08:17:02.389Z,9.83
2023-04-09T08:19:30.684Z,9.33
2023-04-09T08:21:58.880Z,9.77
2023-04-09T08:24:27.498Z,10.30
2023-04-09T08:26:56.698Z,9.93
2023-04-09T08:29:26.335Z,9.37
2023-04-09T08:31:54.609Z,8.97
2023-04-09T08:34:22.718Z,8.50
2023-04-09T08:36:51.329Z,9.70
2023-04-09T08:39:20.790Z,10.07
2023-04-09T08:41:52.063Z,8.97
2023-04-09T08:44:28.826Z,8.23
2023-04-09T08:46:58.479Z,7.80
2023-04-09T08:49:29.768Z,7.37
2023-04-09T08:51:59.983Z,7.87
2023-04-09T08:54:28.500Z,9.07
2023-04-09T08:56:57.705Z,9.50
2023-04-09T08:59:30.351Z,8.13
2023-04-09T09:02:10.558Z,8.23
2023-04-09T09:04:53.702Z,9.80
2023-04-09T09:07:22.060Z,7.87
2023-04-09T09:09:54.414Z,8.10
2023-04-09T09:12:36.504Z,8.80
2023-04-09T09:15:07.721Z,8.30
2023-04-09T09:17:54.192Z,8.60
2023-04-09T09:20:23.780Z,9.10
2023-04-09T09:22:54.701Z,8.80
2023-04-09T09:25:25.674Z,8.93
2023-04-09T09:27:55.016Z,9.23
2023-04-09T09:30:26.460Z,9.27
2023-04-09T09:32:55.680Z,9.10
2023-04-09T09:35:23.932Z,9.13
2023-04-09T09:38:04.204Z,9.80
2023-04-09T09:40:32.641Z,10.50
2023-04-09T09:43:00.701Z,9.00
2023-04-09T09:45:31.486Z,9.10
2023-04-09T09:47:59.707Z,9.13
2023-04-09T09:50:31.750Z,9.23
2023-04-09T09:53:04.568Z,9.50
2023-04-09T09:55:33.649Z,9.13
2023-04-09T09:58:04.946Z,10.60
2023-04-09T10:00:36.788Z,9.30
2023-04-09T10:03:15.390Z,10.87
2023-04-09T10:05:43.960Z,10.33
2023-04-09T10:08:13.444Z,11.20
2023-04-09T10:10:43.471Z,10.10
2023-04-09T10:13:21.298Z,9.73
2023-04-09T10:15:51.988Z,11.20
2023-04-09T10:18:21.268Z,10.53
2023-04-09T10:20:56.219Z,11.10
2023-04-09T10:23:33.803Z,9.50
2023-04-09T10:26:02.989Z,10.40
2023-04-09T10:28:32.178Z,9.93
2023-04-09T10:31:02.733Z,9.47
2023-04-09T10:33:31.064Z,9.50
2023-04-09T10:36:02.334Z,9.47
2023-04-09T10:38:38.510Z,10.23
2023-04-09T10:41:16.578Z,10.13
2023-04-09T10:43:48.001Z,9.43
2023-04-09T10:46:32.059Z,8.80
2023-04-09T10:49:11.366Z,10.20
2023-04-09T10:51:40.451Z,8.60
2023-04-09T10:54:45.772Z,9.30
2023-04-09T10:57:19.202Z,9.03
2023-04-09T10:59:48.971Z,9.63
2023-04-09T11:03:02.419Z,9.43
2023-04-09T11:05:34.181Z,9.90
2023-04-09T11:08:08.204Z,9.80
2023-04-09T11:10:37.460Z,8.77
2023-04-09T11:13:06.287Z,7.60
2023-04-09T11:15:36.995Z,8.80
2023-04-09T11:18:09.619Z,8.63
2023-04-09T11:20:37.831Z,7.90
2023-04-09T11:23:07.004Z,7.60
2023-04-09T11:25:36.270Z,7.17
2023-04-09T11:28:06.773Z,6.80
2023-04-09T11:30:35.639Z,6.43
2023-04-09T11:33:04.254Z,6.73
2023-04-09T11:35:36.551Z,6.60
2023-04-09T11:38:08.095Z,7.43
2023-04-09T11:40:36.173Z,6.97
2023-04-09T11:43:04.301Z,6.50
2023-04-09T11:45:33.548Z,6.10
2023-04-09T11:48:03.217Z,6.80
2023-04-09T11:50:33.390Z,5.87
2023-04-09T11:53:01.608Z,6.10
2023-04-09T11:55:31.912Z,6.70
2023-04-09T11:58:02.914Z,7.10
2023-04-09T12:00:30.980Z,6.40
2023-04-09T12:03:03.995Z,6.60
2023-04-09T12:05:35.342Z,7.00
2023-04-09T12:08:05.779Z,6.93
2023-04-09T12:10:37.011Z,7.53
2023-04-09T12:13:07.538Z,6.83
2023-04-09T12:15:37.251Z,7.60
2023-04-09T12:18:09.462Z,7.17
2023-04-09T12:20:40.745Z,7.10
2023-04-09T12:23:09.987Z,7.30
2023-04-09T12:25:39.996Z,7.20
2023-04-09T12:28:09.595Z,7.07
2023-04-09T12:30:37.637Z,7.33
2023-04-09T12:33:07.679Z,6.73
2023-04-09T12:35:38.880Z,6.70
2023-04-09T12:38:07.257Z,7.80
2023-04-09T12:40:37.034Z,8.07
2023-04-09T12:43:05.469Z,7.47
2023-04-09T12:45:33.758Z,7.43
2023-04-09T12:48:02.263Z,6.43
2023-04-09T12:50:30.727Z,6.60
2023-04-09T12:53:00.353Z,6.57
2023-04-09T12:55:29.005Z,7.20
2023-04-09T12:57:57.149Z,20.50
2023-04-09T13:00:25.451Z,6.40
2023-04-09T13:02:53.672Z,7.40
2023-04-09T13:05:21.863Z,7.73
2023-04-09T13:07:49.926Z,7.50
2023-04-09T13:10:19.516Z,6.77
2023-04-09T13:12:47.558Z,6.73
2023-04-09T13:15:15.665Z,7.33
2023-04-09T13:17:43.802Z,7.20
2023-04-09T13:20:12.679Z,6.33
2023-04-09T13:22:40.789Z,6.40
2023-04-09T13:25:09.436Z,7.03
2023-04-09T13:27:38.930Z,6.83
2023-04-09T13:30:08.314Z,6.57
2023-04-09T13:32:36.506Z,6.53
2023-04-09T13:35:04.713Z,7.50
2023-04-09T13:37:32.907Z,7.20
2023-04-09T13:40:01.045Z,7.40
2023-04-09T13:42:29.226Z,6.60
2023-04-09T13:44:58.756Z,6.13
2023-04-09T13:47:27.311Z,7.20
2023-04-09T13:49:55.528Z,6.33
2023-04-09T13:52:24.618Z,6.80
2023-04-09T13:54:54.425Z,6.53
2023-04-09T13:57:37.280Z,7.10
2023-04-09T14:00:08.581Z,6.30
2023-04-09T14:02:36.840Z,6.20
2023-04-09T14:05:05.242Z,6.43
2023-04-09T14:07:33.292Z,7.20
2023-04-09T14:10:01.411Z,5.87
2023-04-09T14:12:29.566Z,6.57
2023-04-09T14:14:57.721Z,5.43
2023-04-09T14:17:28.070Z,5.60
2023-04-09T14:19:57.913Z,6.37
2023-04-09T14:22:26.586Z,6.30
2023-04-09T14:24:54.917Z,5.50
2023-04-09T14:27:23.711Z,6.13
2023-04-09T14:29:52.587Z,5.10
2023-04-09T14:32:20.796Z,5.93
2023-04-09T14:34:50.395Z,6.33
2023-04-09T14:37:18.514Z,7.13
2023-04-09T14:39:46.730Z,5.93
2023-04-09T14:42:15.456Z,6.40
2023-04-09T14:44:43.598Z,6.40
2023-04-09T14:47:11.992Z,6.00
2023-04-09T14:49:40.203Z,5.70
2023-04-09T14:52:09.726Z,5.70
2023-04-09T14:54:37.912Z,5.50
2023-04-09T14:57:06.923Z,5.97
2023-04-09T14:59:35.287Z,5.37
2023-04-09T15:02:04.136Z,5.27
2023-04-09T15:04:32.339Z,5.50
2023-04-09T15:07:00.799Z,6.10
2023-04-09T15:09:30.428Z,5.57
2023-04-09T15:11:58.528Z,5.50
2023-04-09T15:14:30.574Z,5.70
2023-04-09T15:16:58.699Z,6.30
2023-04-09T15:19:26.846Z,7.53
2023-04-09T15:21:54.835Z,7.00
2023-04-09T15:24:22.983Z,6.80
2023-04-09T15:26:52.850Z,6.27
2023-04-09T15:29:21.012Z,5.87
2023-04-09T15:31:49.705Z,6.80
2023-04-09T15:34:17.805Z,6.10
2023-04-09T15:36:46.508Z,5.90
2023-04-09T15:39:14.988Z,6.50
2023-04-09T15:41:43.101Z,8.47
2023-04-09T15:44:12.746Z,6.57
2023-04-09T15:46:40.942Z,6.10
2023-04-09T15:49:08.999Z,6.23
2023-04-09T15:51:37.103Z,5.83
2023-04-09T15:54:05.508Z,6.00
2023-04-09T15:56:35.768Z,6.27
2023-04-09T15:59:05.385Z,6.63
2023-04-09T16:01:35.163Z,6.47
2023-04-09T16:04:03.685Z,5.70
2023-04-09T16:06:31.966Z,6.60
2023-04-09T16:09:00.135Z,7.20
2023-04-09T16:11:28.451Z,6.50
2023-04-09T16:13:57.349Z,6.10
2023-04-09T16:16:25.550Z,6.20
2023-04-09T16:18:55.212Z,6.50
2023-04-09T16:21:23.844Z,5.77
2023-04-09T16:23:52.265Z,6.23
2023-04-09T16:26:20.636Z,6.60
2023-04-09T16:28:49.489Z,6.87
2023-04-09T16:31:17.508Z,5.80
2023-04-09T16:33:45.599Z,5.47
2023-04-09T16:36:15.103Z,7.20
2023-04-09T16:38:43.204Z,6.43
2023-04-09T16:41:11.614Z,6.13
2023-04-09T16:43:39.687Z,6.57
2023-04-09T16:46:07.991Z,6.33
2023-04-09T16:48:37.184Z,6.00
2023-04-09T16:51:05.693Z,6.43
2023-04-09T16:53:37.675Z,6.85
2023-04-09T16:56:07.934Z,7.07
2023-04-09T16:58:36.161Z,6.07
2023-04-09T17:01:04.593Z,5.57
2023-04-09T17:03:32.808Z,5.73
2023-04-09T17:06:01.744Z,5.90
2023-04-09T17:08:29.929Z,6.63
2023-04-09T17:11:03.016Z,5.90
2023-04-09T17:13:32.458Z,7.50
2023-04-09T17:16:00.709Z,7.00
2023-04-09T17:18:29.325Z,6.10
2023-04-09T17:20:57.742Z,5.40
2023-04-09T17:23:26.355Z,5.50
2023-04-09T17:25:54.998Z,5.90
2023-04-09T17:28:24.923Z,5.80
2023-04-09T17:30:53.604Z,5.90
2023-04-09T17:33:22.521Z,6.20
2023-04-09T17:35:51.328Z,6.17
2023-04-09T17:38:21.586Z,5.50
2023-04-09T17:40:50.827Z,6.00
2023-04-09T17:43:19.223Z,6.55
2023-04-09T17:45:49.369Z,6.40
2023-04-09T17:48:17.911Z,5.97
2023-04-09T17:50:46.766Z,5.87
2023-04-09T17:53:14.866Z,5.77
2023-04-09T17:55:48.175Z,5.90
2023-04-09T17:58:16.496Z,5.60
2023-04-09T18:00:44.628Z,6.00
2023-04-09T18:03:14.853Z,5.50
2023-04-09T18:05:43.325Z,6.00
2023-04-09T18:08:11.613Z,5.87
2023-04-09T18:10:39.730Z,6.10
2023-04-09T18:13:07.898Z,5.30
2023-04-09T18:15:36.339Z,5.90
2023-04-09T18:18:04.584Z,5.77
2023-04-09T18:20:34.068Z,5.70
2023-04-09T18:23:02.199Z,6.50
2023-04-09T18:25:30.363Z,6.20
2023-04-09T18:27:58.630Z,6.23
2023-04-09T18:30:26.824Z,5.73
2023-04-09T18:32:55.066Z,5.87
2023-04-09T18:35:23.147Z,6.10
2023-04-09T18:37:52.594Z,6.57
2023-04-09T18:40:20.932Z,5.73
2023-04-09T18:42:52.870Z,6.27
2023-04-09T18:45:21.292Z,6.27
2023-04-09T18:47:49.733Z,6.23
2023-04-09T18:50:18.951Z,7.70
2023-04-09T18:52:47.317Z,7.03
2023-04-09T18:55:18.254Z,6.27
2023-04-09T18:57:47.286Z,7.27
2023-04-09T19:00:16.253Z,7.00
2023-04-09T19:02:44.649Z,6.93
2023-04-09T19:05:13.328Z,6.73
2023-04-09T19:07:41.419Z,7.37
2023-04-09T19:10:11.356Z,7.50
2023-04-09T19:12:47.395Z,7.23
2023-04-09T19:15:16.163Z,7.03
2023-04-09T19:17:44.312Z,8.10
2023-04-09T19:20:13.677Z,7.73
2023-04-09T19:22:41.778Z,6.90
2023-04-09T19:25:10.556Z,7.40
2023-04-09T19:27:39.960Z,7.40
2023-04-09T19:30:09.290Z,7.30
2023-04-09T19:32:37.820Z,7.50
2023-04-09T19:35:07.150Z,8.20
2023-04-09T19:37:35.280Z,7.53
2023-04-09T19:40:04.716Z,7.23
2023-04-09T19:42:33.464Z,8.37
2023-04-09T19:45:03.129Z,7.63
2023-04-09T19:47:31.353Z,7.90
2023-04-09T19:49:59.448Z,7.60
2023-04-09T19:52:27.696Z,8.03
2023-04-09T19:54:56.335Z,8.27
2023-04-09T19:57:26.359Z,8.73
2023-04-09T19:59:55.115Z,8.43
2023-04-09T20:02:24.912Z,9.20
2023-04-09T20:04:54.424Z,9.23
2023-04-09T20:07:22.524Z,8.10
2023-04-09T20:09:50.702Z,8.50
2023-04-09T20:12:19.279Z,7.43
2023-04-09T20:14:47.377Z,10.60
2023-04-09T20:17:17.107Z,9.23
2023-04-09T20:19:46.640Z,9.03
2023-04-09T20:22:14.749Z,9.77
2023-04-09T20:24:42.868Z,8.93
2023-04-09T20:27:11.361Z,8.50
2023-04-09T20:29:39.753Z,9.33
2023-04-09T20:32:08.015Z,10.10
2023-04-09T20:34:36.210Z,9.53
2023-04-09T20:37:06.747Z,9.80
2023-04-09T20:39:34.844Z,8.40
2023-04-09T20:42:02.900Z,9.60
2023-04-09T20:44:31.725Z,9.83
2023-04-09T20:46:59.718Z,9.00
2023-04-09T20:49:27.892Z,9.67
2023-04-09T20:51:56.940Z,9.97
2023-04-09T20:54:26.480Z,9.73
2023-04-09T20:56:55.145Z,10.70
2023-04-09T20:59:23.581Z,9.93
2023-04-09T21:01:52.382Z,10.80
2023-04-09T21:04:20.874Z,10.43
2023-04-09T21:06:49.005Z,10.00
2023-04-09T21:09:17.086Z,9.30
2023-04-09T21:11:46.541Z,10.87
2023-04-09T21:14:14.851Z,10.30
2023-04-09T21:16:42.966Z,10.77
2023-04-09T21:19:11.104Z,10.17
2023-04-09T21:21:39.245Z,9.90
2023-04-09T21:24:07.412Z,10.33
2023-04-09T21:26:49.064Z,10.20
2023-04-09T21:29:21.449Z,10.30
2023-04-09T21:31:49.956Z,11.20
2023-04-09T21:34:18.099Z,10.80
2023-04-09T21:36:46.704Z,10.57
2023-04-09T21:39:14.877Z,10.60
2023-04-09T21:41:43.005Z,9.63
2023-04-09T21:44:11.061Z,10.60
2023-04-09T21:46:41.823Z,10.60
2023-04-09T21:49:10.031Z,10.57
2023-04-09T21:51:38.177Z,10.43
2023-04-09T21:54:07.218Z,10.90
2023-04-09T21:56:35.880Z,10.37
2023-04-09T21:59:05.042Z,11.37
2023-04-09T22:01:34.927Z,9.90
2023-04-09T22:04:04.939Z,11.33
2023-04-09T22:06:35.431Z,10.63
2023-04-09T22:09:04.032Z,10.93
2023-04-09T22:11:34.234Z,10.50
2023-04-09T22:14:02.385Z,10.40
2023-04-09T22:16:30.591Z,11.37
2023-04-09T22:18:58.902Z,10.70
2023-04-09T22:21:28.597Z,11.20
2023-04-09T22:23:56.858Z,9.77
2023-04-09T22:26:24.960Z,11.23
2023-04-09T22:28:53.333Z,11.00
2023-04-09T22:31:21.981Z,10.07
2023-04-09T22:33:50.167Z,10.23
2023-04-09T22:36:18.301Z,10.93
2023-04-09T22:38:47.769Z,10.57
2023-04-09T22:41:17.517Z,9.50
2023-04-09T22:43:45.703Z,11.17
2023-04-09T22:46:13.876Z,12.32
2023-04-09T22:48:44.915Z,11.23
2023-04-09T22:51:13.905Z,11.00
2023-04-09T22:53:41.960Z,11.20
2023-04-09T22:56:11.516Z,11.63
2023-04-09T22:58:40.154Z,11.10
2023-04-09T23:01:08.867Z,11.43
2023-04-09T23:03:36.974Z,11.17
2023-04-09T23:06:05.466Z,11.17
2023-04-09T23:08:33.511Z,12.30
2023-04-09T23:11:01.584Z,10.97
2023-04-09T23:13:31.077Z,10.50
2023-04-09T23:15:59.164Z,10.93
2023-04-09T23:18:27.413Z,11.43
2023-04-09T23:20:55.466Z,11.60
2023-04-09T23:23:23.597Z,12.10
2023-04-09T23:25:52.474Z,10.77
2023-04-09T23:28:20.534Z,11.70
2023-04-09T23:30:50.100Z,12.67
2023-04-09T23:33:18.134Z,11.53
2023-04-09T23:35:46.835Z,10.70
2023-04-09T23:38:15.446Z,11.23
2023-04-09T23:40:43.586Z,10.43
2023-04-09T23:43:11.683Z,11.37
2023-04-09T23:45:39.770Z,12.03
2023-04-09T23:48:09.828Z,9.77
2023-04-09T23:50:39.816Z,10.17
2023-04-09T23:53:08.048Z,11.10
2023-04-09T23:55:38.134Z,11.40
2023-04-09T23:58:06.530Z,10.30
